METAR Data
IDs: Format: Raw Decoded Include TAF

Data at: 1428 UTC 12 Dec 2018

PPIZ 121256Z AUTO 03017KT 9SM OVC050 M24/M27 A2950 RMK AO2 SNE27 SLP993 P0000 T12391267 FZRANO
PPIZ 121156Z AUTO 04017KT 7SM -SN OVC048 M23/M26 A2950 RMK AO2 SLP993 P0000 60000 T12331261 11233 21256 51005 FZRANO
PPIZ 121056Z AUTO 05020KT 4SM -SN OVC046 M23/M26 A2950 RMK AO2 SLP992 P0000 T12331261 FZRANO
PPIZ 120956Z AUTO 05018KT 4SM -SN OVC042 M23/M26 A2949 RMK AO2 SLP991 P0000 T12331261 FZRANO
PPIZ 120856Z AUTO 04021KT 4SM -SN OVC040 M24/M27 A2948 RMK AO2 SLP988 P0000 60000 T12391267 53006 FZRANO
PPIZ 120756Z AUTO 05020KT 3SM -SN OVC040 M24/M27 A2948 RMK AO2 SLP986 P0000 T12441272 412441322 FZRANO
PPIZ 120740Z AUTO 05021KT 3SM -SN OVC040 M24/M27 A2948 RMK AO2 P0000 FZRANO
PPIZ 120656Z AUTO 05021KT 2 1/2SM -SN OVC038 M25/M28 A2947 RMK AO2 SLP984 P0000 T12501278 FZRANO
PPIZ 120632Z AUTO 05019KT 2 1/2SM HZ OVC038 M25/M28 A2947 RMK AO2 VIS 1 3/4V3 SNE31 P0000 FZRANO
PPIZ 120608Z AUTO 05019KT 3SM -SN OVC038 M26/M28 A2947 RMK AO2 P0000 FZRANO
PPIZ 120556Z AUTO 05019KT 2 1/2SM -SN OVC038 M26/M28 A2947 RMK AO2 SNB32 SLP983 P0000 60000 T12561283 11256 21317 51010 FZRANO
PPIZ 120546Z AUTO 05021KT 2 1/2SM -SN BR OVC038 M26/M28 A2946 RMK AO2 SNB32 P0000 FZRANO
PPIZ 120456Z AUTO 05021KT 3SM HZ OVC040 M27/M29 A2946 RMK AO2 PK WND 04026/0419 SNE32 SLP980 P0000 T12671294 FZRANO
PPIZ 120439Z AUTO 04022KT 2SM HZ OVC040 M27/M29 A2945 RMK AO2 PK WND 04026/0419 SNE32 P0000 FZRANO
PPIZ 120356Z AUTO 05022KT 1 1/2SM -SN OVC040 M27/M29 A2945 RMK AO2 PK WND 04027/0313 SLP976 P0000 T12671294 FZRANO
PPIZ 120305Z AUTO 04022KT 1 1/4SM -SN OVC036 M27/M30 A2944 RMK AO2 PK WND 04026/0302 P0000 FZRANO
PPIZ 120256Z AUTO 04022KT 1SM -SN OVC036 M27/M30 A2944 RMK AO2 PK WND 04027/0250 SLP972 P0000 60000 T12721300 50002 FZRANO
PPIZ 120229Z AUTO 04021KT 1SM -SN OVC036 M28/M31 A2944 RMK AO2 P0000 FZRANO
PPIZ 120156Z AUTO 04019KT 1 1/4SM -SN OVC034 M28/M31 A2944 RMK AO2 SNB21 SLP973 P0000 T12831311 FZRANO
PPIZ 120121Z AUTO 04021KT 1 3/4SM -SN OVC034 M29/M32 A2943 RMK AO2 SNB21 P0000 FZRANO
PPIZ 120056Z AUTO 04020KT 2SM HZ OVC032 M30/M33 A2943 RMK AO2 SNE25 SLP971 P0000 T13001328 FZRANO
PPIZ 120027Z AUTO 04020KT 1 1/2SM HZ OVC032 M31/M34 A2944 RMK AO2 SNE25 P0000 FZRANO
PPIZ 120013Z AUTO 04020KT 1SM -SN OVC032 M32/M34 A2943 RMK AO2 P0000 FZRANO
PPIZ 120004Z AUTO 04020KT 1 1/4SM -SN OVC032 M32/M34 A2943 RMK AO2 P0000 FZRANO
PPIZ 112356Z AUTO 04020KT 2SM -SN OVC034 M32/M34 A2943 RMK AO2 SNB49 SLP971 P0000 60000 T13171344 11317 21322 58000 FZRANO
PPIZ 112352Z AUTO 04020KT 2 1/2SM -SN OVC034 M32/M35 A2943 RMK AO2 SNB49 P0000 FZRANO
PPIZ 112337Z AUTO 04019KT 3SM HZ BKN034 M32/M35 A2944 RMK AO2 FZRANO
PPIZ 112328Z AUTO 04018KT 2 1/2SM HZ BKN034 M32/M35 A2943 RMK AO2 FZRANO
PPIZ 112315Z AUTO 04018KT 3SM HZ FEW034 M32/M35 A2943 RMK AO2 FZRANO
PPIZ 112256Z AUTO 04020KT 2 1/2SM HZ FEW034 M32/M35 A2944 RMK AO2 SLP972 T13221350 FZRANO
PPIZ 112213Z AUTO 04019KT 2SM HZ FEW034 M32/M35 A2944 RMK AO2 FZRANO
PPIZ 112156Z AUTO 04019KT 1 3/4SM HZ FEW034 M32/M35 A2943 RMK AO2 SLP971 T13221350 FZRANO
PPIZ 112127Z AUTO 04020KT 1 3/4SM HZ SCT026 SCT034 M32/M35 A2943 RMK AO2 FZRANO
PPIZ 112056Z AUTO 04019KT 2SM HZ BKN028 BKN034 M32/M35 A2943 RMK AO2 SLP970 T13221350 51006 FZRANO
PPIZ 112013Z AUTO 04019KT 2SM HZ FEW026 SCT035 M32/M35 A2943 RMK AO2 FZRANO
PPIZ 111956Z AUTO 04020KT 1 3/4SM HZ FEW010 SCT026 BKN035 M32/M35 A2942 RMK AO2 SLP967 T13221350 FZRANO
PPIZ 111934Z AUTO 04019KT 1 3/4SM HZ FEW008 SCT035 M32/M35 A2943 RMK AO2 FZRANO
PPIZ 111856Z AUTO 04020KT 2SM HZ FEW027 M32/M35 A2942 RMK AO2 SLP968 T13221350 FZRANO
PPIZ 111827Z AUTO 04020KT 1 3/4SM HZ CLR M32/M35 A2942 RMK AO2 FZRANO
PPIZ 111818Z AUTO 04019KT 2SM HZ CLR M32/M35 A2942 RMK AO2 FZRANO
PPIZ 111756Z AUTO 04021KT 1 1/4SM HZ CLR M32/M35 A2941 RMK AO2 SNE53 SLP963 P0000 60000 T13221350 11317 21322 51005 FZRANO
PPIZ 111656Z AUTO 04020KT 1 1/2SM -SN SCT003 M32/M35 A2941 RMK AO2 SLP963 P0000 T13171350 FZRANO
PPIZ 111556Z AUTO 03021KT 1 1/2SM -SN BKN003 OVC008 M32/M35 A2940 RMK AO2 SLP960 P0000 T13171350 FZRANO
PPIZ 111515Z AUTO 04019KT 1 1/4SM -SN OVC003 M32/M35 A2940 RMK AO2 P0000 FZRANO
PPIZ 111456Z AUTO 04020KT 1SM -SN OVC003 M32/M35 A2939 RMK AO2 SLP958 P0000 60000 T13171350 58005 FZRANO
PPIZ 111415Z AUTO 04020KT 1SM -SN OVC003 M32/M34 A2940 RMK AO2 P0000 FZRANO
PPIZ 111403Z AUTO 04019KT 1 1/4SM -SN BKN003 M32/M35 A2940 RMK AO2 P0000 FZRANO
PPIZ 111356Z AUTO 04020KT 1 1/2SM -SN SCT003 M32/M35 A2940 RMK AO2 SNB20E38B55 SLP960 P0000 T13171350 FZRANO
PPIZ 111325Z AUTO 04020KT 1 1/4SM -SN SCT003 SCT009 M32/M35 A2941 RMK AO2 SNB20 P0000 FZRANO
PPIZ 111256Z AUTO 04019KT 1 1/2SM HZ BKN003 BKN011 M32/M35 A2941 RMK AO2 SLP964 T13171350 FZRANO
PPIZ 111251Z AUTO 03019KT 1 3/4SM HZ BKN003 BKN011 M32/M35 A2941 RMK AO2 FZRANO
PPIZ 111156Z AUTO 04019KT 1 1/4SM HZ FEW003 OVC013 M32/M34 A2942 RMK AO2 SNB11E29 SLP965 P0000 60000 T13171344 11311 21317 55000 FZRANO
PPIZ 111056Z AUTO 03019KT 1 1/4SM HZ FEW005 OVC013 M32/M35 A2942 RMK AO2 SLP965 T13171350 FZRANO
PPIZ 111052Z AUTO 04019KT 1 1/4SM HZ FEW005 OVC013 M32/M34 A2942 RMK AO2 FZRANO
PPIZ 111014Z AUTO 03021KT 1 1/4SM HZ FEW004 BKN015 OVC020 M32/M35 A2942 RMK AO2 FZRANO
PPIZ 111005Z AUTO 03020KT 1 1/2SM HZ FEW004 BKN008 OVC018 M32/M35 A2942 RMK AO2 CIG 004V009 FZRANO
PPIZ 110956Z AUTO 03020KT 1 1/2SM HZ BKN004 BKN020 OVC028 M32/M35 A2942 RMK AO2 CIG 002V008 SLP966 T13171350 FZRANO
PPIZ 110944Z AUTO 03021KT 1 1/4SM HZ BKN002 OVC028 M32/M34 A2942 RMK AO2 FZRANO
PPIZ 110937Z AUTO 03020KT 1SM HZ FEW002 OVC028 M32/M34 A2942 RMK AO2 FZRANO
PPIZ 110856Z AUTO 04019KT 1 1/4SM HZ OVC028 M32/M35 A2941 RMK AO2 SLP964 60000 T13171350 56004 FZRANO
PPIZ 110818Z AUTO 03021KT 1 1/4SM HZ FEW002 SCT010 OVC028 M32/M34 A2941 RMK AO2 FZRANO
PPIZ 110809Z AUTO 03021KT 1 1/4SM HZ SCT002 BKN010 OVC028 M32/M34 A2941 RMK AO2 FZRANO
PPIZ 110756Z AUTO 03019KT 1 1/2SM HZ SCT002 OVC028 M32/M34 A2941 RMK AO2 SNE37 SLP964 P0000 T13171344 412501322 FZRANO
PPIZ 110746Z AUTO 03020KT 1 1/2SM HZ FEW002 OVC028 M32/M34 A2941 RMK AO2 SNE37 P0000 FZRANO
PPIZ 110736Z AUTO 04021KT 1 1/4SM -SN OVC028 M32/M34 A2941 RMK AO2 P0000 FZRANO
PPIZ 110656Z AUTO 04022KT 1SM -SN FEW004 SCT009 OVC028 M32/M34 A2942 RMK AO2 PK WND 03027/0647 SNB12 SLP968 P0000 T13171344 FZRANO
PPIZ 110626Z AUTO 04021KT 1SM -SN FEW004 OVC028 M31/M34 A2943 RMK AO2 SNB12 P0000 FZRANO
PPIZ 110556Z AUTO 04020KT 1 1/2SM HZ FEW015 OVC028 M32/M35 A2942 RMK AO2 SNE14 SLP968 P0000 60000 T13171350 11300 21322 57002 FZRANO
PPIZ 110506Z AUTO 04019KT 1 1/2SM -SN OVC013 M32/M35 A2943 RMK AO2 P0000 FZRANO
PPIZ 110456Z AUTO 04019KT 1 1/2SM -SN FEW006 BKN015 OVC029 M32/M35 A2943 RMK AO2 SNB20 SLP970 P0000 T13221350 FZRANO
PPIZ 110440Z AUTO 04021KT 1 1/4SM -SN SCT003 OVC013 M32/M35 A2943 RMK AO2 SNB20 P0000 FZRANO
PPIZ 110425Z AUTO 04021KT 1 1/4SM -SN BKN003 BKN008 OVC028 M32/M34 A2943 RMK AO2 SNB20 CIG 002V005 P0000 FZRANO
PPIZ 110409Z AUTO 04020KT 1 1/2SM HZ SCT003 BKN008 OVC028 M32/M34 A2943 RMK AO2 CIG 007V011 FZRANO
PPIZ 110356Z AUTO 05020KT 1 1/4SM HZ BKN003 OVC028 M31/M34 A2943 RMK AO2 SNB14E29 SLP970 P0000 T13111344 FZRANO
PPIZ 110339Z AUTO 05020KT 1 1/4SM HZ BKN003 BKN009 OVC013 M31/M34 A2943 RMK AO2 SNB14E29 P0000 FZRANO
PPIZ 110329Z AUTO 05020KT 1 1/2SM HZ SCT003 BKN009 OVC013 M32/M34 A2943 RMK AO2 SNB14E29 CIG 007V011 P0000 FZRANO
PPIZ 110256Z AUTO 05019KT 1 3/4SM HZ SCT009 OVC013 M32/M34 A2943 RMK AO2 SNE52 SLP971 P0000 60000 T13171344 55005 FZRANO
PPIZ 110245Z AUTO 05020KT 1 1/2SM -SN SCT009 OVC013 M31/M34 A2943 RMK AO2 P0000 FZRANO
PPIZ 110233Z AUTO 05020KT 1 1/4SM -SN FEW004 BKN009 OVC013 M31/M34 A2943 RMK AO2 CIG 006V011 P0000 FZRANO